Time;durP1;ratioP1;P1;durP2;ratioP2;P2;SDS_P1;SDS_P2;PMS_P1;PMS_P2;Temp;Humidity;BMP_temperature;BMP_pressure;BME280_temperature;BME280_humidity;BME280_pressure;Samples;Min_cycle;Max_cycle;Signal;HPM_P1;HPM_P2
2024/01/19 00:00:04;;;;;;;;;;;;;;;12.36;94.13;98838.16;106502;1254;71670;-85
2024/01/19 00:02:44;;;;;;;;;;;;;;;12.30;94.59;98840.58;106531;1259;60520;-85
2024/01/19 00:05:19;;;;;;;;;;;;;;;12.41;94.05;98840.55;106426;1257;60685;-84
2024/01/19 00:08:00;;;;;;;;;;;;;;;12.47;93.49;98844.41;106568;1257;74253;-84
2024/01/19 00:10:33;;;;;;;;;;;;;;;12.42;93.57;98850.08;106704;1257;68317;-84
2024/01/19 00:13:01;;;;;;;;;;;;;;;12.24;94.96;98853.76;106369;1258;71426;-85
2024/01/19 00:15:41;;;;;;;;;;;;;;;12.12;96.14;98853.71;106509;1259;60587;-85
2024/01/19 00:18:22;;;;;;;;;;;;;;;12.10;96.38;98856.51;106335;1259;202973;-84
2024/01/19 00:20:50;;;;;;;;;;;;;;;12.13;96.05;98856.34;106567;1260;72606;-83
2024/01/19 00:23:30;;;;;;;;;;;;;;;12.05;96.60;98857.73;106430;1257;67117;-85
2024/01/19 00:26:04;;;;;;;;;;;;;;;12.16;96.01;98859.74;106495;1258;72622;-84
2024/01/19 00:28:37;;;;;;;;;;;;;;;12.17;95.92;98857.35;106520;1257;60461;-85
2024/01/19 00:31:11;;;;;;;;;;;;;;;12.16;95.96;98855.80;106583;1257;60444;-85
2024/01/19 00:33:38;;;;;;;;;;;;;;;12.16;95.86;98857.02;106655;1258;72550;-84
2024/01/19 00:36:18;;;;;;;;;;;;;;;12.21;95.50;98858.02;106610;1256;67588;-83
2024/01/19 00:38:58;;;;;;;;;;;;;;;12.14;95.93;98857.95;106258;1259;73102;-83
2024/01/19 00:41:31;;;;;;;;;;;;;;;12.24;95.35;98857.04;106553;1258;61741;-84
2024/01/19 00:44:11;;;;;;;;;;;;;;;12.26;95.13;98854.23;107066;1257;60294;-84
2024/01/19 00:46:45;;;;;;;;;;;;;;;12.21;95.22;98855.44;106480;1256;73831;-83
2024/01/19 00:49:18;;;;;;;;;;;;;;;12.26;95.01;98854.23;106360;1258;68711;-83
2024/01/19 00:51:52;;;;;;;;;;;;;;;12.42;93.61;98858.84;106803;1255;72558;-84
2024/01/19 00:54:23;;;;;;;;;;;;;;;12.22;94.76;98852.95;106623;1254;62153;-85
2024/01/19 00:57:03;;;;;;;;;;;;;;;12.15;95.62;98855.95;106407;1254;60512;-84
2024/01/19 00:59:43;;;;;;;;;;;;;;;12.19;95.41;98856.57;106758;1256;73828;-85
2024/01/19 01:02:16;;;;;;;;;;;;;;;12.15;95.62;98854.76;106397;1258;68707;-84
2024/01/19 01:04:56;;;;;;;;;;;;;;;12.12;95.69;98853.54;106495;1258;72686;-84
2024/01/19 01:07:30;;;;;;;;;;;;;;;12.16;95.42;98852.54;106569;1259;60438;-84
2024/01/19 01:10:10;;;;;;;;;;;;;;;12.07;95.66;98846.64;106485;1254;60519;-85
2024/01/19 01:12:50;;;;;;;;;;;;;;;12.09;95.29;98848.57;106668;1253;72631;-85
2024/01/19 01:15:19;;;;;;;;;;;;;;;11.98;95.73;98851.02;106423;1259;67585;-84
2024/01/19 01:17:59;;;;;;;;;;;;;;;11.95;96.12;98854.73;106560;1254;71237;-84
2024/01/19 01:20:27;;;;;;;;;;;;;;;11.93;96.35;98862.02;106950;1257;60493;-84
2024/01/19 01:23:00;;;;;;;;;;;;;;;11.96;96.30;98871.73;106521;1258;60290;-84
2024/01/19 01:25:35;;;;;;;;;;;;;;;11.87;96.93;98877.29;106581;1256;72703;-84
2024/01/19 01:28:08;;;;;;;;;;;;;;;11.63;98.76;98878.92;106314;1259;68721;-84
2024/01/19 01:30:42;;;;;;;;;;;;;;;11.50;99.89;98880.77;106714;1253;70423;-84
2024/01/19 01:33:15;;;;;;;;;;;;;;;11.44;100.00;98879.40;106510;1257;61856;-85
2024/01/19 01:35:43;;;;;;;;;;;;;;;11.46;100.00;98885.19;106455;1254;60560;-85
2024/01/19 01:38:17;;;;;;;;;;;;;;;11.53;99.98;98891.00;106494;1253;73809;-85
2024/01/19 01:40:47;;;;;;;;;;;;;;;11.50;100.00;98892.55;106444;1260;68376;-85
2024/01/19 01:43:22;;;;;;;;;;;;;;;11.58;99.42;98888.46;106544;1260;72646;-84
2024/01/19 01:45:57;;;;;;;;;;;;;;;11.61;98.62;98889.87;106370;1254;60621;-85
2024/01/19 01:48:25;;;;;;;;;;;;;;;11.60;98.68;98893.73;106521;1254;60462;-85
2024/01/19 01:51:00;;;;;;;;;;;;;;;11.59;98.57;98894.83;106543;1254;72596;-84
2024/01/19 01:53:29;;;;;;;;;;;;;;;11.52;98.88;98893.45;106593;1260;68480;-85
2024/01/19 01:56:05;;;;;;;;;;;;;;;11.46;99.05;98890.28;106443;1257;71132;-84
2024/01/19 01:58:34;;;;;;;;;;;;;;;11.37;99.33;98889.45;106394;1253;60518;-85
2024/01/19 02:01:08;;;;;;;;;;;;;;;11.29;99.95;98894.66;106535;1257;60468;-85
2024/01/19 02:03:38;;;;;;;;;;;;;;;11.25;100.00;98897.33;106356;1258;73456;-85
2024/01/19 02:06:11;;;;;;;;;;;;;;;11.22;100.00;98900.64;106730;1253;66656;-84
2024/01/19 02:08:45;;;;;;;;;;;;;;;11.20;99.99;98906.88;106379;1254;71401;-85
2024/01/19 02:11:13;;;;;;;;;;;;;;;11.31;99.43;98907.11;106397;1255;61674;-84
2024/01/19 02:13:46;;;;;;;;;;;;;;;11.39;98.41;98908.73;106412;1257;60463;-85
2024/01/19 02:16:14;;;;;;;;;;;;;;;11.30;98.70;98908.39;106566;1259;73913;-85
2024/01/19 02:18:48;;;;;;;;;;;;;;;11.09;99.99;98916.21;106434;1258;67446;-84
2024/01/19 02:21:17;;;;;;;;;;;;;;;11.02;100.00;98918.44;106443;1257;71294;-84
2024/01/19 02:23:59;;;;;;;;;;;;;;;11.09;100.00;98910.28;106379;1264;60475;-85
2024/01/19 02:26:28;;;;;;;;;;;;;;;11.06;100.00;98915.69;106645;1253;60379;-85
2024/01/19 02:29:01;;;;;;;;;;;;;;;11.09;100.00;98916.61;106537;1255;72910;-85
2024/01/19 02:31:30;;;;;;;;;;;;;;;11.08;100.00;98915.42;106391;1254;68489;-85
2024/01/19 02:34:04;;;;;;;;;;;;;;;11.10;100.00;98912.66;106341;1257;71247;-84
2024/01/19 02:36:38;;;;;;;;;;;;;;;11.21;100.00;98908.95;106480;1256;60362;-84
2024/01/19 02:39:11;;;;;;;;;;;;;;;11.35;99.46;98905.98;106562;1257;60464;-85
2024/01/19 02:41:40;;;;;;;;;;;;;;;11.41;98.85;98900.99;106341;1256;74054;-85
2024/01/19 02:44:14;;;;;;;;;;;;;;;11.44;98.08;98905.53;106389;1252;67145;-85
2024/01/19 02:46:48;;;;;;;;;;;;;;;11.47;97.78;98901.41;106493;1257;72689;-85
2024/01/19 02:49:15;;;;;;;;;;;;;;;11.41;97.67;98906.10;106529;1254;60438;-85
2024/01/19 02:51:49;;;;;;;;;;;;;;;11.29;98.59;98914.45;106496;1254;60374;-85
2024/01/19 02:54:23;;;;;;;;;;;;;;;11.29;98.28;98917.11;106439;1253;73860;-84
2024/01/19 02:56:56;;;;;;;;;;;;;;;11.30;98.30;98913.80;106380;1257;67231;-85
2024/01/19 02:59:24;;;;;;;;;;;;;;;11.36;97.67;98909.84;106470;1257;73007;-84
2024/01/19 03:01:58;;;;;;;;;;;;;;;11.33;97.81;98916.02;106657;1254;60531;-85
2024/01/19 03:04:26;;;;;;;;;;;;;;;11.26;98.55;98920.63;106481;1258;60469;-85
2024/01/19 03:06:59;;;;;;;;;;;;;;;11.22;99.01;98923.83;106478;1255;73907;-85
2024/01/19 03:09:27;;;;;;;;;;;;;;;11.19;98.78;98926.34;106535;1254;68463;-84
2024/01/19 03:12:01;;;;;;;;;;;;;;;11.12;99.17;98933.77;106407;1254;72700;-83
2024/01/19 03:14:35;;;;;;;;;;;;;;;11.10;98.32;98938.04;106647;1254;60526;-84
2024/01/19 03:17:04;;;;;;;;;;;;;;;11.03;98.43;98941.75;106503;1257;60386;-84
2024/01/19 03:19:33;;;;;;;;;;;;;;;11.04;97.96;98945.32;106419;1253;73007;-85
2024/01/19 03:22:01;;;;;;;;;;;;;;;11.02;97.83;98942.60;106546;1254;68675;-85
2024/01/19 03:24:29;;;;;;;;;;;;;;;10.82;98.95;98953.73;106685;1254;72881;-85
2024/01/19 03:26:56;;;;;;;;;;;;;;;10.64;99.98;98960.42;106398;1254;60393;-84
2024/01/19 03:29:26;;;;;;;;;;;;;;;10.61;99.92;98961.19;106359;1257;60470;-85
2024/01/19 03:31:54;;;;;;;;;;;;;;;10.53;100.00;98966.56;106390;1253;72676;-84
2024/01/19 03:34:21;;;;;;;;;;;;;;;10.48;100.00;98971.55;106489;1254;67427;-85
2024/01/19 03:36:55;;;;;;;;;;;;;;;10.52;100.00;98974.23;106549;1254;72734;-84
2024/01/19 03:39:32;;;;;;;;;;;;;;;10.41;100.00;98978.64;106461;1254;60546;-84
2024/01/19 03:42:07;;;;;;;;;;;;;;;10.47;100.00;98976.39;106362;1260;60533;-84
2024/01/19 03:44:34;;;;;;;;;;;;;;;10.47;99.90;98979.52;106402;1253;73866;-85
2024/01/19 03:47:08;;;;;;;;;;;;;;;10.21;100.00;98984.20;106556;1254;68469;-84
2024/01/19 03:49:37;;;;;;;;;;;;;;;10.12;100.00;98985.38;106344;1260;72731;-84
2024/01/19 03:52:11;;;;;;;;;;;;;;;10.19;100.00;98986.91;106471;1257;60490;-84
2024/01/19 03:54:40;;;;;;;;;;;;;;;10.21;100.00;98989.20;106571;1253;60617;-84
2024/01/19 03:57:14;;;;;;;;;;;;;;;10.23;100.00;98988.23;106444;1254;74276;-85
2024/01/19 03:59:43;;;;;;;;;;;;;;;10.40;100.00;98988.34;106543;1259;67111;-84
2024/01/19 04:02:11;;;;;;;;;;;;;;;10.42;99.95;98989.25;106473;1254;72734;-84
2024/01/19 04:04:44;;;;;;;;;;;;;;;10.41;99.90;98997.25;106271;1255;60488;-85
2024/01/19 04:07:12;;;;;;;;;;;;;;;10.44;99.39;99003.94;106426;1257;60460;-85
2024/01/19 04:09:46;;;;;;;;;;;;;;;10.44;98.76;99010.40;106528;1254;72972;-84
2024/01/19 04:12:16;;;;;;;;;;;;;;;10.48;98.23;99011.54;106527;1253;68411;-84
2024/01/19 04:14:50;;;;;;;;;;;;;;;10.28;98.69;99005.22;106586;1253;72009;-84
2024/01/19 04:17:19;;;;;;;;;;;;;;;10.25;99.05;99008.50;106415;1253;61351;-84
2024/01/19 04:19:53;;;;;;;;;;;;;;;10.39;97.87;99011.89;106450;1254;60448;-85
2024/01/19 04:22:22;;;;;;;;;;;;;;;10.46;97.10;99009.06;106559;1253;72606;-85
2024/01/19 04:24:56;;;;;;;;;;;;;;;10.29;98.07;99005.30;106268;1254;68860;-84
2024/01/19 04:27:25;;;;;;;;;;;;;;;10.13;99.43;99006.55;106467;1255;70486;-85
2024/01/19 04:29:52;;;;;;;;;;;;;;;10.08;99.99;99012.05;106413;1255;60428;-85
2024/01/19 04:32:25;;;;;;;;;;;;;;;10.13;99.88;99010.77;106410;1256;60345;-84
2024/01/19 04:34:52;;;;;;;;;;;;;;;10.04;99.99;99016.77;106547;1254;72619;-85
2024/01/19 04:37:26;;;;;;;;;;;;;;;10.07;99.96;99016.77;106392;1254;68389;-85
2024/01/19 04:39:54;;;;;;;;;;;;;;;10.03;99.57;99019.78;106352;1254;72676;-84
2024/01/19 04:42:27;;;;;;;;;;;;;;;10.07;99.16;99034.66;106389;1255;60877;-85
2024/01/19 04:44:55;;;;;;;;;;;;;;;10.11;98.89;99041.71;106561;1253;61110;-83
2024/01/19 04:47:30;;;;;;;;;;;;;;;9.98;99.28;99043.89;106394;1253;72651;-84
2024/01/19 04:50:04;;;;;;;;;;;;;;;9.87;100.00;99047.15;106491;1256;70831;-85
2024/01/19 04:52:38;;;;;;;;;;;;;;;10.01;99.61;99051.40;106465;1253;71878;-85
2024/01/19 04:55:05;;;;;;;;;;;;;;;9.94;99.40;99053.69;106466;1255;60365;-85
2024/01/19 04:57:39;;;;;;;;;;;;;;;9.98;99.30;99066.59;106554;1254;60307;-85
2024/01/19 05:00:13;;;;;;;;;;;;;;;10.02;99.02;99065.73;106332;1257;73034;-84
2024/01/19 05:02:41;;;;;;;;;;;;;;;9.98;99.34;99070.90;106504;1254;68921;-84
2024/01/19 05:05:15;;;;;;;;;;;;;;;10.07;98.56;99071.89;106367;1254;70426;-85
2024/01/19 05:07:42;;;;;;;;;;;;;;;10.11;97.53;99074.63;106462;1255;60409;-85
2024/01/19 05:10:16;;;;;;;;;;;;;;;9.98;97.77;99077.99;106483;1253;60538;-85
2024/01/19 05:12:50;;;;;;;;;;;;;;;10.00;97.64;99080.14;106735;1253;72636;-85
2024/01/19 05:15:24;;;;;;;;;;;;;;;10.07;97.04;99083.46;106795;1253;67396;-85
2024/01/19 05:17:52;;;;;;;;;;;;;;;10.19;96.41;99083.54;106428;1254;71478;-86
2024/01/19 05:20:25;;;;;;;;;;;;;;;10.26;95.91;99087.54;106644;1257;60463;-85
2024/01/19 05:22:59;;;;;;;;;;;;;;;10.24;96.02;99095.60;106388;1254;63138;-84
2024/01/19 05:25:33;;;;;;;;;;;;;;;10.27;95.48;99099.48;106409;1257;72622;-84
2024/01/19 05:28:00;;;;;;;;;;;;;;;10.30;94.87;99102.03;106432;1256;67518;-84
2024/01/19 05:30:34;;;;;;;;;;;;;;;10.28;94.69;99110.48;106446;1253;72437;-84
2024/01/19 05:33:08;;;;;;;;;;;;;;;10.00;96.62;99109.88;106475;1254;60510;-84
2024/01/19 05:35:42;;;;;;;;;;;;;;;9.76;98.67;99118.48;106468;1253;62124;-86
2024/01/19 05:38:09;;;;;;;;;;;;;;;9.45;100.00;99128.73;106313;1254;73834;-84
2024/01/19 05:40:43;;;;;;;;;;;;;;;9.35;100.00;99137.44;106383;1253;68703;-84
2024/01/19 05:43:17;;;;;;;;;;;;;;;9.45;100.00;99137.69;106499;1257;72945;-84
2024/01/19 05:45:45;;;;;;;;;;;;;;;9.55;100.00;99143.85;106430;1253;60498;-84
2024/01/19 05:48:14;;;;;;;;;;;;;;;9.50;100.00;99150.95;106412;1252;60426;-86
2024/01/19 05:50:49;;;;;;;;;;;;;;;9.61;100.00;99158.91;106294;1253;73787;-84
2024/01/19 05:53:22;;;;;;;;;;;;;;;9.48;100.00;99165.81;106438;1251;68976;-86
2024/01/19 05:55:50;;;;;;;;;;;;;;;9.38;100.00;99171.19;106825;1257;70075;-84
2024/01/19 05:58:24;;;;;;;;;;;;;;;9.43;100.00;99179.36;106373;1253;60426;-84
2024/01/19 06:00:58;;;;;;;;;;;;;;;9.38;100.00;99187.92;106495;1254;60362;-85
2024/01/19 06:03:35;;;;;;;;;;;;;;;9.26;100.00;99190.83;106456;1254;73829;-85
2024/01/19 06:06:03;;;;;;;;;;;;;;;9.34;100.00;99193.02;106631;1253;70676;-85
2024/01/19 06:08:37;;;;;;;;;;;;;;;9.31;100.00;99198.27;106437;1256;73480;-85
2024/01/19 06:11:11;;;;;;;;;;;;;;;9.29;100.00;99199.07;106402;1253;63159;-85
2024/01/19 06:13:46;;;;;;;;;;;;;;;9.22;100.00;99206.65;106508;1254;60536;-84
2024/01/19 06:16:14;;;;;;;;;;;;;;;9.37;100.00;99208.83;106420;1259;73969;-84
2024/01/19 06:18:48;;;;;;;;;;;;;;;9.49;100.00;99209.27;106380;1254;70964;-86
2024/01/19 06:21:22;;;;;;;;;;;;;;;9.51;100.00;99208.90;106790;1254;72980;-85
2024/01/19 06:23:56;;;;;;;;;;;;;;;9.42;100.00;99208.34;106471;1256;60428;-85
2024/01/19 06:26:24;;;;;;;;;;;;;;;9.50;100.00;99217.42;106415;1254;60434;-85
2024/01/19 06:29:00;;;;;;;;;;;;;;;9.44;100.00;99221.95;106545;1253;73565;-85
2024/01/19 06:31:34;;;;;;;;;;;;;;;9.64;100.00;99228.17;106600;1254;67138;-85
2024/01/19 06:34:02;;;;;;;;;;;;;;;9.80;100.00;99234.44;106845;1257;71715;-85
2024/01/19 06:36:36;;;;;;;;;;;;;;;9.81;100.00;99244.63;106486;1253;60572;-85
2024/01/19 06:39:10;;;;;;;;;;;;;;;9.75;100.00;99244.86;106465;1254;60396;-83
2024/01/19 06:41:44;;;;;;;;;;;;;;;9.81;100.00;99247.04;106616;1253;73853;-84
2024/01/19 06:44:12;;;;;;;;;;;;;;;9.84;100.00;99248.23;106660;1254;67597;-83
2024/01/19 06:46:46;;;;;;;;;;;;;;;10.07;100.00;99249.45;106547;1257;71832;-85
2024/01/19 06:49:19;;;;;;;;;;;;;;;10.21;100.00;99243.98;106441;1256;60296;-84
2024/01/19 06:51:53;;;;;;;;;;;;;;;10.23;100.00;99238.19;106631;1254;60482;-84
2024/01/19 06:54:21;;;;;;;;;;;;;;;10.24;100.00;99244.73;106682;1260;73977;-84
2024/01/19 06:56:55;;;;;;;;;;;;;;;10.32;100.00;99250.91;106605;1257;68309;-84
2024/01/19 06:59:29;;;;;;;;;;;;;;;10.46;100.00;99261.63;106526;1253;73019;-84
2024/01/19 07:02:04;;;;;;;;;;;;;;;10.38;100.00;99264.93;106460;1254;60524;-82
2024/01/19 07:04:38;;;;;;;;;;;;;;;10.38;100.00;99270.86;106670;1253;60510;-84
2024/01/19 07:07:11;;;;;;;;;;;;;;;10.37;100.00;99278.23;106780;1253;73851;-84
2024/01/19 07:09:45;;;;;;;;;;;;;;;10.39;100.00;99281.67;106655;1253;68640;-83
2024/01/19 07:12:20;;;;;;;;;;;;;;;10.46;100.00;99288.85;106629;1254;73600;-83
2024/01/19 07:14:53;;;;;;;;;;;;;;;10.52;100.00;99291.83;106705;1253;60515;-83
2024/01/19 07:17:28;;;;;;;;;;;;;;;10.58;100.00;99294.16;106735;1253;60882;-83
2024/01/19 07:20:04;;;;;;;;;;;;;;;10.64;100.00;99291.23;106566;1256;76641;-83
2024/01/19 07:22:38;;;;;;;;;;;;;;;10.81;100.00;99297.13;106654;1253;69012;-83
2024/01/19 07:25:12;;;;;;;;;;;;;;;10.83;100.00;99305.73;106461;1257;72700;-83
2024/01/19 07:27:46;;;;;;;;;;;;;;;10.67;100.00;99315.27;106610;1252;61246;-83
2024/01/19 07:30:19;;;;;;;;;;;;;;;10.80;100.00;99320.55;106576;1253;60533;-83
2024/01/19 07:32:53;;;;;;;;;;;;;;;10.85;100.00;99322.08;106503;1253;74984;-84
2024/01/19 07:35:39;;;;;;;;;;;;;;;10.91;100.00;99326.77;106435;1253;70589;-83
2024/01/19 07:38:14;;;;;;;;;;;;;;;10.85;100.00;99330.81;106547;1253;75085;-83
2024/01/19 07:40:47;;;;;;;;;;;;;;;10.90;100.00;99337.58;106696;1257;60887;-84
2024/01/19 07:43:21;;;;;;;;;;;;;;;10.95;100.00;99344.51;106770;1253;61009;-84
2024/01/19 07:45:54;;;;;;;;;;;;;;;11.25;99.60;99350.52;106536;1253;72231;-84
2024/01/19 07:48:28;;;;;;;;;;;;;;;11.27;98.82;99360.61;106546;1254;68521;-83
2024/01/19 07:51:03;;;;;;;;;;;;;;;10.99;100.00;99365.54;106454;1253;75377;-83
2024/01/19 07:53:36;;;;;;;;;;;;;;;10.78;100.00;99369.34;106558;1253;63056;-83
2024/01/19 07:56:10;;;;;;;;;;;;;;;10.71;100.00;99377.17;106586;1254;62791;-83
2024/01/19 07:58:44;;;;;;;;;;;;;;;10.67;100.00;99378.80;106501;1253;74746;-83
2024/01/19 08:01:17;;;;;;;;;;;;;;;10.49;100.00;99385.41;106507;1252;71051;-82
2024/01/19 08:03:51;;;;;;;;;;;;;;;10.44;100.00;99386.12;106785;1253;73579;-82
2024/01/19 08:06:25;;;;;;;;;;;;;;;10.39;100.00;99389.59;106491;1257;62743;-83
2024/01/19 08:08:59;;;;;;;;;;;;;;;10.37;100.00;99402.02;106517;1253;60883;-82
2024/01/19 08:11:32;;;;;;;;;;;;;;;10.37;100.00;99409.14;106661;1257;75942;-83
2024/01/19 08:14:06;;;;;;;;;;;;;;;10.29;100.00;99413.31;106760;1253;69695;-83
2024/01/19 08:16:43;;;;;;;;;;;;;;;10.35;100.00;99414.52;106716;1253;73517;-84
2024/01/19 08:19:17;;;;;;;;;;;;;;;10.47;100.00;99418.02;106631;1254;63831;-85
2024/01/19 08:21:51;;;;;;;;;;;;;;;10.46;100.00;99423.31;106483;1252;60338;-85
2024/01/19 08:24:26;;;;;;;;;;;;;;;10.42;100.00;99428.39;106429;1253;75838;-84
2024/01/19 08:26:59;;;;;;;;;;;;;;;10.39;100.00;99434.56;106684;1257;69127;-85
2024/01/19 08:29:33;;;;;;;;;;;;;;;10.38;100.00;99437.10;106584;1253;74593;-86
2024/01/19 08:32:07;;;;;;;;;;;;;;;10.35;100.00;99441.34;106809;1254;61914;-85
2024/01/19 08:34:44;;;;;;;;;;;;;;;10.25;100.00;99446.80;106500;1253;60356;-83
2024/01/19 08:37:18;;;;;;;;;;;;;;;10.13;100.00;99455.91;106649;1253;75239;-84
2024/01/19 08:39:52;;;;;;;;;;;;;;;10.09;100.00;99455.61;106813;1253;70206;-85
2024/01/19 08:42:25;;;;;;;;;;;;;;;10.21;100.00;99462.33;106583;1253;72976;-85
2024/01/19 08:44:59;;;;;;;;;;;;;;;10.27;100.00;99463.86;106534;1257;62011;-84
2024/01/19 08:47:33;;;;;;;;;;;;;;;10.28;100.00;99467.23;106598;1253;60506;-84
2024/01/19 08:50:07;;;;;;;;;;;;;;;10.25;100.00;99472.52;106595;1252;75008;-85
2024/01/19 08:52:41;;;;;;;;;;;;;;;10.34;100.00;99473.19;106540;1257;71108;-84
2024/01/19 08:55:14;;;;;;;;;;;;;;;10.34;100.00;99477.91;106502;1257;74990;-82
2024/01/19 08:57:48;;;;;;;;;;;;;;;10.36;100.00;99482.56;106473;1253;60968;-82
2024/01/19 09:00:22;;;;;;;;;;;;;;;10.32;100.00;99490.01;106619;1254;60920;-82
2024/01/19 09:02:56;;;;;;;;;;;;;;;10.21;100.00;99489.79;106675;1254;74976;-82
2024/01/19 09:05:37;;;;;;;;;;;;;;;10.24;100.00;99497.98;106478;1253;71411;-82
2024/01/19 09:08:11;;;;;;;;;;;;;;;10.34;100.00;99497.92;106686;1253;74928;-82
2024/01/19 09:10:44;;;;;;;;;;;;;;;10.32;100.00;99504.02;106496;1253;61574;-82
2024/01/19 09:13:18;;;;;;;;;;;;;;;10.20;100.00;99504.11;106653;1257;60544;-82
2024/01/19 09:15:53;;;;;;;;;;;;;;;10.17;100.00;99505.95;106618;1253;74016;-83
2024/01/19 09:18:27;;;;;;;;;;;;;;;10.06;100.00;99514.06;106593;1253;71298;-83
2024/01/19 09:20:55;;;;;;;;;;;;;;;9.95;100.00;99520.69;106552;1256;72514;-82
2024/01/19 09:23:23;;;;;;;;;;;;;;;10.12;100.00;99520.91;106723;1253;61038;-82
2024/01/19 09:25:51;;;;;;;;;;;;;;;10.30;99.98;99522.52;106690;1253;60814;-82
2024/01/19 09:28:25;;;;;;;;;;;;;;;10.28;99.76;99521.36;106575;1253;76194;-81
2024/01/19 09:31:00;;;;;;;;;;;;;;;10.09;100.00;99529.30;106548;1253;69935;-82
2024/01/19 09:33:33;;;;;;;;;;;;;;;9.98;100.00;99532.48;106448;1256;74907;-82
2024/01/19 09:36:08;;;;;;;;;;;;;;;9.94;100.00;99538.77;106592;1252;61866;-82
2024/01/19 09:38:41;;;;;;;;;;;;;;;9.90;100.00;99543.02;106628;1254;60861;-82
2024/01/19 09:41:15;;;;;;;;;;;;;;;9.91;100.00;99548.20;106439;1254;75198;-82
2024/01/19 09:43:49;;;;;;;;;;;;;;;9.95;100.00;99546.40;106546;1253;70733;-82
2024/01/19 09:46:20;;;;;;;;;;;;;;;9.92;100.00;99550.98;107040;1257;74969;-83
2024/01/19 09:49:00;;;;;;;;;;;;;;;9.93;100.00;99553.15;106487;1258;61945;-82
2024/01/19 09:51:43;;;;;;;;;;;;;;;9.89;100.00;99552.61;106517;1253;60461;-82
2024/01/19 09:54:20;;;;;;;;;;;;;;;10.05;99.87;99553.66;106534;1256;75370;-83
2024/01/19 09:56:54;;;;;;;;;;;;;;;10.14;99.12;99550.34;106526;1253;71088;-83
2024/01/19 09:59:28;;;;;;;;;;;;;;;10.00;99.81;99556.05;106654;1254;74088;-82
2024/01/19 10:02:02;;;;;;;;;;;;;;;10.04;99.94;99561.16;106601;1256;61520;-82
2024/01/19 10:04:36;;;;;;;;;;;;;;;9.92;100.00;99565.88;106550;1253;61780;-82
2024/01/19 10:07:03;;;;;;;;;;;;;;;9.92;99.94;99567.98;106912;1255;75467;-83
2024/01/19 10:09:31;;;;;;;;;;;;;;;9.93;99.96;99573.60;106953;1253;69687;-83
2024/01/19 10:12:00;;;;;;;;;;;;;;;9.96;99.95;99571.00;106548;1253;74243;-83
2024/01/19 10:14:34;;;;;;;;;;;;;;;9.95;99.86;99574.09;106581;1257;61124;-83
2024/01/19 10:17:08;;;;;;;;;;;;;;;9.95;99.89;99578.29;106470;1258;60409;-82
2024/01/19 10:19:42;;;;;;;;;;;;;;;9.86;99.96;99580.53;106489;1257;76169;-82
2024/01/19 10:22:25;;;;;;;;;;;;;;;9.89;99.77;99584.04;106737;1253;69847;-83
2024/01/19 10:25:08;;;;;;;;;;;;;;;9.93;99.30;99589.27;106618;1253;74370;-82
2024/01/19 10:27:52;;;;;;;;;;;;;;;9.95;98.60;99594.98;106645;1253;61806;-82
2024/01/19 10:30:28;;;;;;;;;;;;;;;10.03;97.37;99601.40;106472;1253;60301;-80
2024/01/19 10:33:04;;;;;;;;;;;;;;;10.02;97.43;99607.69;106777;1253;75812;-81
2024/01/19 10:35:39;;;;;;;;;;;;;;;9.91;97.81;99611.06;106545;1254;70232;-81
2024/01/19 10:38:17;;;;;;;;;;;;;;;9.96;97.60;99611.34;106746;1253;74024;-81
2024/01/19 10:40:50;;;;;;;;;;;;;;;9.90;97.31;99612.56;106444;1253;62233;-82
2024/01/19 10:43:24;;;;;;;;;;;;;;;9.87;97.43;99614.41;106657;1253;62144;-82
2024/01/19 10:45:58;;;;;;;;;;;;;;;9.94;96.64;99622.48;106532;1253;75022;-82
2024/01/19 10:48:32;;;;;;;;;;;;;;;9.89;96.72;99625.19;106438;1253;69927;-81
2024/01/19 10:51:02;;;;;;;;;;;;;;;9.77;97.20;99626.02;106598;1253;74747;-81
2024/01/19 10:53:30;;;;;;;;;;;;;;;9.67;97.47;99620.15;106558;1253;61799;-82
2024/01/19 10:56:04;;;;;;;;;;;;;;;9.56;98.77;99624.50;106622;1253;61724;-82
2024/01/19 10:58:38;;;;;;;;;;;;;;;9.57;98.94;99626.99;106522;1256;75848;-82
2024/01/19 11:01:14;;;;;;;;;;;;;;;9.68;98.40;99629.47;106813;1256;69932;-82
2024/01/19 11:03:47;;;;;;;;;;;;;;;9.83;97.51;99635.31;106535;1255;75781;-82
2024/01/19 11:06:21;;;;;;;;;;;;;;;9.79;97.71;99643.00;106718;1254;62002;-82
2024/01/19 11:08:55;;;;;;;;;;;;;;;9.97;95.59;99644.01;106465;1253;62758;-81
2024/01/19 11:11:30;;;;;;;;;;;;;;;10.01;94.31;99639.38;106623;1253;75803;-81
2024/01/19 11:13:59;;;;;;;;;;;;;;;9.88;95.00;99639.00;106543;1257;70635;-81
2024/01/19 11:16:34;;;;;;;;;;;;;;;9.96;94.69;99640.98;106519;1252;74929;-82
2024/01/19 11:19:09;;;;;;;;;;;;;;;9.94;93.72;99638.00;106576;1257;61153;-81
2024/01/19 11:21:44;;;;;;;;;;;;;;;9.95;92.54;99642.63;106559;1256;62140;-82
2024/01/19 11:24:18;;;;;;;;;;;;;;;9.92;91.63;99650.05;106525;1252;75005;-81
2024/01/19 11:26:54;;;;;;;;;;;;;;;9.84;91.21;99653.67;106748;1255;69932;-82
2024/01/19 11:29:36;;;;;;;;;;;;;;;9.80;91.21;99661.21;106720;1257;72407;-82
2024/01/19 11:32:10;;;;;;;;;;;;;;;9.94;89.86;99661.61;106542;1253;61724;-81
2024/01/19 11:34:45;;;;;;;;;;;;;;;9.90;89.52;99661.68;106546;1257;62085;-82
2024/01/19 11:37:37;;;;;;;;;;;;;;;9.77;90.71;99668.47;106546;1253;76870;-82
2024/01/19 11:40:23;;;;;;;;;;;;;;;9.77;90.68;99672.89;106567;1253;71046;-82
2024/01/19 11:43:03;;;;;;;;;;;;;;;9.66;91.14;99677.64;106416;1258;76445;-82
2024/01/19 11:45:42;;;;;;;;;;;;;;;9.65;91.27;99686.67;106501;1253;60526;-82
2024/01/19 11:48:48;;;;;;;;;;;;;;;9.66;91.29;99692.73;106516;1253;61952;-82
2024/01/19 11:51:31;;;;;;;;;;;;;;;9.76;91.30;99699.09;106584;1259;75817;-82
2024/01/19 11:54:04;;;;;;;;;;;;;;;9.74;91.80;99699.02;106949;1253;70588;-82
2024/01/19 11:56:38;;;;;;;;;;;;;;;9.67;91.94;99710.48;106602;1253;74542;-82
2024/01/19 11:59:12;;;;;;;;;;;;;;;9.51;92.99;99713.35;106469;1255;61863;-82
2024/01/19 12:01:46;;;;;;;;;;;;;;;9.64;92.29;99715.43;106465;1253;62025;-82
2024/01/19 12:04:19;;;;;;;;;;;;;;;9.64;91.33;99716.76;106644;1256;76390;-84
2024/01/19 12:07:03;;;;;;;;;;;;;;;9.55;90.41;99717.57;106485;1257;69915;-83
2024/01/19 12:09:37;;;;;;;;;;;;;;;9.57;89.90;99727.90;106719;1253;75924;-83
2024/01/19 12:12:11;;;;;;;;;;;;;;;9.46;90.11;99731.58;106611;1253;59885;-83
2024/01/19 12:14:45;;;;;;;;;;;;;;;9.28;91.61;99732.90;106465;1257;61269;-83
2024/01/19 12:17:13;;;;;;;;;;;;;;;9.39;90.95;99738.40;106346;1251;354926;-83
2024/01/19 12:19:45;;;;;;;;;;;;;;;9.48;90.38;99745.30;106513;1253;69351;-84
2024/01/19 12:22:22;;;;;;;;;;;;;;;9.58;89.79;99751.30;106432;1253;74943;-83
2024/01/19 12:25:14;;;;;;;;;;;;;;;9.74;88.46;99756.95;106555;1253;62925;-83
2024/01/19 12:27:48;;;;;;;;;;;;;;;9.66;88.59;99758.24;106694;1253;60409;-83
2024/01/19 12:30:17;;;;;;;;;;;;;;;9.68;88.12;99756.41;106549;1253;74616;-83
2024/01/19 12:32:48;;;;;;;;;;;;;;;9.63;87.68;99761.71;106505;1253;69852;-83
2024/01/19 12:35:22;;;;;;;;;;;;;;;9.53;88.26;99767.98;106750;1253;74752;-83
2024/01/19 12:37:55;;;;;;;;;;;;;;;9.25;89.94;99777.42;106551;1253;60444;-83
2024/01/19 12:40:30;;;;;;;;;;;;;;;9.01;92.29;99785.48;106413;1254;60694;-82
2024/01/19 12:43:01;;;;;;;;;;;;;;;8.98;93.07;99789.98;106702;1254;73331;-82
2024/01/19 12:45:29;;;;;;;;;;;;;;;9.07;92.37;99790.83;106568;1253;71347;-83
2024/01/19 12:48:03;;;;;;;;;;;;;;;9.16;91.80;99789.11;106585;1253;73700;-83
2024/01/19 12:50:50;;;;;;;;;;;;;;;9.38;89.32;99784.28;106641;1253;60355;-82
2024/01/19 12:53:24;;;;;;;;;;;;;;;9.45;88.18;99785.19;106766;1253;61216;-82
2024/01/19 12:55:59;;;;;;;;;;;;;;;9.46;87.20;99792.77;106702;1252;73782;-82
2024/01/19 12:58:27;;;;;;;;;;;;;;;9.41;87.27;99793.90;106796;1256;68837;-82
2024/01/19 13:01:04;;;;;;;;;;;;;;;9.35;87.30;99801.50;106736;1256;73732;-80
2024/01/19 13:03:32;;;;;;;;;;;;;;;9.47;86.08;99808.25;107573;1253;62969;-80
2024/01/19 13:06:06;;;;;;;;;;;;;;;9.47;85.67;99809.28;106554;1253;60707;-81